Bookmark and Share
Track history (hours):
 

Nikolay Afanasyev

Last reported at 2012-Jun-05 20:30 UTC. Time now 2014-Apr-19 05:18 UTC.
Position N 38°52' E 025°38'.
Warning: this ship's position is years out of date!

Length 102 m; draft 6 m.

Type: Fishing. MMSI: 273533800.

NotesDate/timePositionNaut miles runAvg speedWind from/ knotsBaromVisibWave heightAir tempDewpointWater temp
2012-Jun-05 20:30N 38°52' E 025°38'16 5.4
2012-Jun-05 17:33N 38°46' E 025°19'13 4.0
2012-Jun-05 14:27N 38°33' E 025°18'1314.4
2012-Jun-05 13:33N 38°21' E 025°22'1414.4
2012-Jun-05 12:33N 38°07' E 025°29'1414.0
2012-Jun-05 11:33N 37°54' E 025°34'6 6.4
2012-Jun-05 10:35N 37°60' E 025°32'1413.3
2012-Jun-05 09:33N 38°13' E 025°26'1313.1
2012-Jun-05 08:32N 38°25' E 025°20'1212.6
2012-Jun-05 07:33N 38°38' E 025°19'1312.9
2012-Jun-05 06:32N 38°51' E 025°22'24 8.0
2012-Jun-05 03:33N 38°27' E 025°20'25 1.7
2012-Jun-04 12:34N 38°03' E 025°30'1312.7
2012-Jun-04 11:33N 38°15' E 025°25'1212.7
2012-Jun-04 10:35N 38°27' E 025°20'1312.1
2012-Jun-04 09:33N 38°40' E 025°21'13 6.3
2012-Jun-04 07:31N 38°52' E 025°24'2512.4
2012-Jun-04 05:33N 38°28' E 025°22'1213.2
2012-Jun-04 04:36N 38°16' E 025°26'1413.0
2012-Jun-04 03:33N 38°02' E 025°30'70 4.3
2012-Jun-03 11:33N 37°06' E 024°39'1212.1
2012-Jun-03 10:35N 36°60' E 024°27'1413.6
2012-Jun-03 09:33N 36°52' E 024°12'1413.6
2012-Jun-03 08:33N 36°43' E 023°59'1413.9
2012-Jun-03 07:33N 36°32' E 023°48'1413.8
2012-Jun-03 06:33N 36°22' E 023°37'1313.4
2012-Jun-03 05:34N 36°12' E 023°26'1213.1
2012-Jun-03 04:36N 36°04' E 023°14'1413.4
2012-Jun-03 03:33N 36°00' E 022°57'1313.4
2012-Jun-03 02:33N 35°58' E 022°41'1313.3
2012-Jun-03 01:33N 35°55' E 022°25'1413.6
2012-Jun-03 00:33N 35°53' E 022°08'1413.8
2012-Jun-02 23:33N 35°51' E 021°51'  
2012-May-29 06:33N 35°50' W 007°34'1312.8
2012-May-29 05:34N 35°50' W 007°50'1212.9
2012-May-29 04:36N 35°49' W 008°05'1312.0
2012-May-29 03:32N 35°49' W 008°21'1111.6
2012-May-29 02:34N 35°48' W 008°35'3511.3
2012-May-28 23:25N 35°46' W 009°18'118 9.1
2012-May-28 10:28N 37°38' W 010°04'2513.1
2012-May-28 08:32N 38°04' W 010°04'35213.0
2012-May-27 05:26N 43°55' W 009°37'  

Dump ship's entire track history

sailing weather and tide predictions

Nikolay Afanasyev — UEPZ — position and weather